MSC Susanna — 3ECU4 — position and weather

sailwx.info

Track history (hours):
 
Tides and Currents Weather Stations Pressure Air Temp Water Temp Dewpoint Dewpoint Depression Visibility Wind Speed Wind Dir Waves Ship Positions

MSC Susanna

Last reported at 2018-Apr-25 06:16 UTC. Time now 2018-Apr-25 12:44 UTC.
Position N 01°25' E 104°29'.

Length 337 m; draft 9.6 m.

Type: Ship (hazmat cat A). MMSI: 371466000.

Date/timePositionNaut miles runAvg speedWind from/ knotsBaromVisibWave heightAir tempDewpointWater temp
2018-Apr-25 06:16N 01°25' E 104°29'617.6
2018-Apr-25 05:56N 01°21' E 104°25'817.6
2018-Apr-25 05:30N 01°17' E 104°18'918.0
2018-Apr-25 04:59N 01°16' E 104°09'918.2
2018-Apr-25 04:30N 01°14' E 104°00'917.8
2018-Apr-25 04:00N 01°11' E 103°52'611.7
2018-Apr-25 03:30N 01°15' E 103°47'3 5.1
2018-Apr-25 02:57N 01°17' E 103°45'0 0.1
2018-Apr-25 02:30N 01°17' E 103°45'0 0.1
2018-Apr-25 01:59N 01°17' E 103°45'0 0.1
2018-Apr-25 01:30N 01°17' E 103°45'0 0.1
2018-Apr-25 00:54N 01°17' E 103°45'0 0.0
2018-Apr-25 00:30N 01°17' E 103°45'0 0.0
2018-Apr-24 23:57N 01°17' E 103°45'0 0.0
2018-Apr-24 23:30N 01°17' E 103°45'0 0.0
2018-Apr-24 22:57N 01°17' E 103°45'0 0.0
2018-Apr-24 22:29N 01°17' E 103°45'0 0.0
2018-Apr-24 21:57N 01°17' E 103°45'0 0.1
2018-Apr-24 21:24N 01°17' E 103°45'0 0.1
2018-Apr-24 20:59N 01°17' E 103°45'0 0.0
2018-Apr-24 19:48N 01°17' E 103°45'0 0.0
2018-Apr-24 19:30N 01°17' E 103°45'0 0.1
2018-Apr-24 18:54N 01°17' E 103°45'0 0.2
2018-Apr-24 18:30N 01°17' E 103°45'1 1.5
2018-Apr-24 17:59N 01°16' E 103°46'3 5.7
2018-Apr-24 17:30N 01°15' E 103°43'510.3
2018-Apr-24 17:00N 01°12' E 103°39'3 6.1
2018-Apr-24 16:31N 01°13' E 103°36'2 4.0
2018-Apr-24 16:00N 01°12' E 103°34'4 8.8
2018-Apr-24 15:30N 01°10' E 103°30'814.5
2018-Apr-24 14:59N 01°13' E 103°23'715.2
2018-Apr-24 14:30N 01°18' E 103°18'814.9
2018-Apr-24 13:58N 01°23' E 103°12'815.5
2018-Apr-24 13:28N 01°27' E 103°06'  
2018-Apr-18 05:48N 19°01' E 072°29'618.1
2018-Apr-18 05:30N 19°06' E 072°28'1118.4
2018-Apr-18 04:53N 19°17' E 072°27'1018.9
2018-Apr-18 04:22N 19°27' E 072°25'919.7
2018-Apr-18 03:56N 19°35' E 072°24'1220.5
2018-Apr-18 03:21N 19°47' E 072°21'721.1
2018-Apr-18 03:01N 19°54' E 072°19'2821.4
2018-Apr-18 01:42N 20°21' E 072°27'421.7
2018-Apr-18 01:30N 20°25' E 072°28'1121.6
2018-Apr-18 01:00N 20°36' E 072°30'1120.6
2018-Apr-18 00:29N 20°46' E 072°32'919.4
2018-Apr-18 00:00N 20°55' E 072°34'815.7
2018-Apr-17 23:30N 21°03' E 072°35'3 6.6
2018-Apr-17 23:00N 21°05' E 072°38'0 0.6
2018-Apr-17 22:30N 21°05' E 072°38'0 0.0
2018-Apr-17 22:00N 21°05' E 072°38'0 0.0
2018-Apr-17 21:30N 21°05' E 072°38'0 0.0
2018-Apr-17 21:00N 21°05' E 072°38'0 0.0
2018-Apr-17 20:30N 21°05' E 072°38'0 0.0
2018-Apr-17 20:00N 21°05' E 072°38'0 0.0
2018-Apr-17 19:30N 21°05' E 072°38'0 0.0
2018-Apr-17 19:00N 21°05' E 072°38'0 0.0
2018-Apr-17 18:30N 21°05' E 072°38'0 0.0
2018-Apr-17 18:00N 21°05' E 072°38'0 0.0
2018-Apr-17 17:30N 21°05' E 072°38'0 0.0
2018-Apr-17 17:00N 21°05' E 072°38'0 0.0
2018-Apr-17 16:29N 21°05' E 072°38'0 0.0
2018-Apr-17 16:00N 21°05' E 072°38'0 0.0
2018-Apr-17 15:30N 21°05' E 072°38'0 0.0
2018-Apr-17 15:00N 21°05' E 072°38'0 0.0
2018-Apr-17 14:30N 21°05' E 072°38'0 0.0
2018-Apr-17 14:00N 21°05' E 072°38'0 0.0
2018-Apr-17 13:30N 21°05' E 072°38'0 0.0
2018-Apr-17 13:00N 21°05' E 072°38'0 0.0
2018-Apr-17 12:30N 21°05' E 072°38'0 0.0
2018-Apr-17 12:00N 21°05' E 072°38'0 0.9
2018-Apr-17 11:30N 21°05' E 072°37'1 2.7
2018-Apr-17 11:00N 21°05' E 072°36'3 5.7
2018-Apr-17 10:30N 21°03' E 072°34'4 6.9
2018-Apr-17 10:00N 20°59' E 072°34'4 8.9
2018-Apr-17 09:30N 20°55' E 072°33'510.2
2018-Apr-17 09:00N 20°50' E 072°33'610.7
2018-Apr-17 08:29N 20°44' E 072°32'510.8
2018-Apr-17 08:00N 20°39' E 072°31'510.6
2018-Apr-17 07:30N 20°34' E 072°30'510.5
2018-Apr-17 07:00N 20°29' E 072°30'510.2
2018-Apr-17 06:30N 20°24' E 072°30'510.6
2018-Apr-17 06:00N 20°18' E 072°28'611.1
2018-Apr-17 05:30N 20°13' E 072°27'611.4
2018-Apr-17 04:58N 20°07' E 072°24'710.9
2018-Apr-17 04:20N 20°01' E 072°22'410.1
2018-Apr-17 03:57N 19°57' E 072°21'510.0
2018-Apr-17 03:30N 19°53' E 072°21'5 9.7
2018-Apr-17 03:00N 19°48' E 072°22'5 9.5
2018-Apr-17 02:26N 19°43' E 072°23'4 9.4
2018-Apr-17 01:59N 19°38' E 072°24'4 9.2
2018-Apr-17 01:30N 19°34' E 072°24'4 8.4
2018-Apr-17 00:59N 19°30' E 072°25'4 8.0
2018-Apr-17 00:30N 19°26' E 072°26'4 8.0
2018-Apr-17 00:00N 19°22' E 072°26'4 8.5
2018-Apr-16 23:29N 19°17' E 072°27'4 9.2
2018-Apr-16 23:00N 19°13' E 072°28'4 8.8
2018-Apr-16 22:30N 19°09' E 072°28'6 9.5
2018-Apr-16 21:53N 19°03' E 072°30'5 9.9
2018-Apr-16 21:24N 18°58' E 072°31'7 9.8
2018-Apr-16 20:41N 18°52' E 072°34'310.0
2018-Apr-16 20:25N 18°51' E 072°37'14 1.0
2018-Apr-16 06:45N 18°53' E 072°51'310.3
2018-Apr-16 06:27N 18°51' E 072°49'5 9.4
2018-Apr-16 05:57N 18°50' E 072°44'510.7
2018-Apr-16 05:30N 18°50' E 072°39'510.7
2018-Apr-16 05:01N 18°50' E 072°33'16 3.8
2018-Apr-16 00:52N 18°52' E 072°17'2413.5
2018-Apr-15 23:04N 18°52' E 071°51'113.4
2018-Apr-15 22:58N 18°52' E 071°50'713.5
2018-Apr-15 22:29N 18°52' E 071°43'713.7
2018-Apr-15 22:00N 18°53' E 071°36'713.8
2018-Apr-15 21:29N 18°53' E 071°28'713.8
2018-Apr-15 21:00N 18°53' E 071°21'1013.9
2018-Apr-15 20:19N 18°53' E 071°11'514.4
2018-Apr-15 20:00N 18°53' E 071°06'713.8
2018-Apr-15 19:30N 18°55' E 070°59'814.6
2018-Apr-15 18:57N 19°01' E 070°54'714.6
2018-Apr-15 18:30N 19°06' E 070°50'714.5
2018-Apr-15 18:00N 19°12' E 070°46'714.4
2018-Apr-15 17:30N 19°18' E 070°41'714.4
2018-Apr-15 17:00N 19°24' E 070°37'714.5
2018-Apr-15 16:30N 19°30' E 070°33'714.6
2018-Apr-15 16:00N 19°36' E 070°28'714.5
2018-Apr-15 15:30N 19°42' E 070°24'714.4
2018-Apr-15 15:00N 19°48' E 070°19'714.2
2018-Apr-15 14:30N 19°54' E 070°15'714.2
2018-Apr-15 14:00N 19°59' E 070°11'714.1
2018-Apr-15 13:30N 20°05' E 070°06'714.0
2018-Apr-15 13:00N 20°11' E 070°02'714.0
2018-Apr-15 12:29N 20°18' E 069°59'913.5
2018-Apr-15 11:50N 20°24' E 069°52'514.2
2018-Apr-15 11:30N 20°28' E 069°49'  
Track history (hours):
 
Tides and Currents Weather Stations Pressure Air Temp Water Temp Dewpoint Dewpoint Depression Visibility Wind Speed Wind Dir Waves Ship Positions

MSC Susanna

Last reported at 2018-Apr-25 06:16 UTC. Time now 2018-Apr-25 12:44 UTC.
Position N 01°25' E 104°29'.

Length 337 m; draft 9.6 m.

Type: Ship (hazmat cat A). MMSI: 371466000.

Date/timePositionNaut miles runAvg speedWind from/ knotsBaromVisibWave heightAir tempDewpointWater temp
2018-Apr-25 06:16N 01°25' E 104°29'617.6
2018-Apr-25 05:56N 01°21' E 104°25'817.6
2018-Apr-25 05:30N 01°17' E 104°18'918.0
2018-Apr-25 04:59N 01°16' E 104°09'918.2
2018-Apr-25 04:30N 01°14' E 104°00'917.8
2018-Apr-25 04:00N 01°11' E 103°52'611.7
2018-Apr-25 03:30N 01°15' E 103°47'3 5.1
2018-Apr-25 02:57N 01°17' E 103°45'0 0.1
2018-Apr-25 02:30N 01°17' E 103°45'0 0.1
2018-Apr-25 01:59N 01°17' E 103°45'0 0.1
2018-Apr-25 01:30N 01°17' E 103°45'0 0.1
2018-Apr-25 00:54N 01°17' E 103°45'0 0.0
2018-Apr-25 00:30N 01°17' E 103°45'0 0.0
2018-Apr-24 23:57N 01°17' E 103°45'0 0.0
2018-Apr-24 23:30N 01°17' E 103°45'0 0.0
2018-Apr-24 22:57N 01°17' E 103°45'0 0.0
2018-Apr-24 22:29N 01°17' E 103°45'0 0.0
2018-Apr-24 21:57N 01°17' E 103°45'0 0.1
2018-Apr-24 21:24N 01°17' E 103°45'0 0.1
2018-Apr-24 20:59N 01°17' E 103°45'0 0.0
2018-Apr-24 19:48N 01°17' E 103°45'0 0.0
2018-Apr-24 19:30N 01°17' E 103°45'0 0.1
2018-Apr-24 18:54N 01°17' E 103°45'0 0.2
2018-Apr-24 18:30N 01°17' E 103°45'1 1.5
2018-Apr-24 17:59N 01°16' E 103°46'3 5.7
2018-Apr-24 17:30N 01°15' E 103°43'510.3
2018-Apr-24 17:00N 01°12' E 103°39'3 6.1
2018-Apr-24 16:31N 01°13' E 103°36'2 4.0
2018-Apr-24 16:00N 01°12' E 103°34'4 8.8
2018-Apr-24 15:30N 01°10' E 103°30'814.5
2018-Apr-24 14:59N 01°13' E 103°23'715.2
2018-Apr-24 14:30N 01°18' E 103°18'814.9
2018-Apr-24 13:58N 01°23' E 103°12'815.5
2018-Apr-24 13:28N 01°27' E 103°06'  
2018-Apr-18 05:48N 19°01' E 072°29'618.1
2018-Apr-18 05:30N 19°06' E 072°28'1118.4
2018-Apr-18 04:53N 19°17' E 072°27'1018.9
2018-Apr-18 04:22N 19°27' E 072°25'919.7
2018-Apr-18 03:56N 19°35' E 072°24'1220.5
2018-Apr-18 03:21N 19°47' E 072°21'721.1
2018-Apr-18 03:01N 19°54' E 072°19'2821.4
2018-Apr-18 01:42N 20°21' E 072°27'421.7
2018-Apr-18 01:30N 20°25' E 072°28'1121.6
2018-Apr-18 01:00N 20°36' E 072°30'1120.6
2018-Apr-18 00:29N 20°46' E 072°32'919.4
2018-Apr-18 00:00N 20°55' E 072°34'815.7
2018-Apr-17 23:30N 21°03' E 072°35'3 6.6
2018-Apr-17 23:00N 21°05' E 072°38'0 0.6
2018-Apr-17 22:30N 21°05' E 072°38'0 0.0
2018-Apr-17 22:00N 21°05' E 072°38'0 0.0
2018-Apr-17 21:30N 21°05' E 072°38'0 0.0
2018-Apr-17 21:00N 21°05' E 072°38'0 0.0
2018-Apr-17 20:30N 21°05' E 072°38'0 0.0
2018-Apr-17 20:00N 21°05' E 072°38'0 0.0
2018-Apr-17 19:30N 21°05' E 072°38'0 0.0
2018-Apr-17 19:00N 21°05' E 072°38'0 0.0
2018-Apr-17 18:30N 21°05' E 072°38'0 0.0
2018-Apr-17 18:00N 21°05' E 072°38'0 0.0
2018-Apr-17 17:30N 21°05' E 072°38'0 0.0
2018-Apr-17 17:00N 21°05' E 072°38'0 0.0
2018-Apr-17 16:29N 21°05' E 072°38'0 0.0
2018-Apr-17 16:00N 21°05' E 072°38'0 0.0
2018-Apr-17 15:30N 21°05' E 072°38'0 0.0
2018-Apr-17 15:00N 21°05' E 072°38'0 0.0
2018-Apr-17 14:30N 21°05' E 072°38'0 0.0
2018-Apr-17 14:00N 21°05' E 072°38'0 0.0
2018-Apr-17 13:30N 21°05' E 072°38'0 0.0
2018-Apr-17 13:00N 21°05' E 072°38'0 0.0
2018-Apr-17 12:30N 21°05' E 072°38'0 0.0
2018-Apr-17 12:00N 21°05' E 072°38'0 0.9
2018-Apr-17 11:30N 21°05' E 072°37'1 2.7
2018-Apr-17 11:00N 21°05' E 072°36'3 5.7
2018-Apr-17 10:30N 21°03' E 072°34'4 6.9
2018-Apr-17 10:00N 20°59' E 072°34'4 8.9
2018-Apr-17 09:30N 20°55' E 072°33'510.2
2018-Apr-17 09:00N 20°50' E 072°33'610.7
2018-Apr-17 08:29N 20°44' E 072°32'510.8
2018-Apr-17 08:00N 20°39' E 072°31'510.6
2018-Apr-17 07:30N 20°34' E 072°30'510.5
2018-Apr-17 07:00N 20°29' E 072°30'510.2
2018-Apr-17 06:30N 20°24' E 072°30'510.6
2018-Apr-17 06:00N 20°18' E 072°28'611.1
2018-Apr-17 05:30N 20°13' E 072°27'611.4
2018-Apr-17 04:58N 20°07' E 072°24'710.9
2018-Apr-17 04:20N 20°01' E 072°22'410.1
2018-Apr-17 03:57N 19°57' E 072°21'510.0
2018-Apr-17 03:30N 19°53' E 072°21'5 9.7
2018-Apr-17 03:00N 19°48' E 072°22'5 9.5
2018-Apr-17 02:26N 19°43' E 072°23'4 9.4
2018-Apr-17 01:59N 19°38' E 072°24'4 9.2
2018-Apr-17 01:30N 19°34' E 072°24'4 8.4
2018-Apr-17 00:59N 19°30' E 072°25'4 8.0
2018-Apr-17 00:30N 19°26' E 072°26'4 8.0
2018-Apr-17 00:00N 19°22' E 072°26'4 8.5
2018-Apr-16 23:29N 19°17' E 072°27'4 9.2
2018-Apr-16 23:00N 19°13' E 072°28'4 8.8
2018-Apr-16 22:30N 19°09' E 072°28'6 9.5
2018-Apr-16 21:53N 19°03' E 072°30'5 9.9
2018-Apr-16 21:24N 18°58' E 072°31'7 9.8
2018-Apr-16 20:41N 18°52' E 072°34'310.0
2018-Apr-16 20:25N 18°51' E 072°37'14 1.0
2018-Apr-16 06:45N 18°53' E 072°51'310.3
2018-Apr-16 06:27N 18°51' E 072°49'5 9.4
2018-Apr-16 05:57N 18°50' E 072°44'510.7
2018-Apr-16 05:30N 18°50' E 072°39'510.7
2018-Apr-16 05:01N 18°50' E 072°33'16 3.8
2018-Apr-16 00:52N 18°52' E 072°17'2413.5
2018-Apr-15 23:04N 18°52' E 071°51'113.4
2018-Apr-15 22:58N 18°52' E 071°50'713.5
2018-Apr-15 22:29N 18°52' E 071°43'713.7
2018-Apr-15 22:00N 18°53' E 071°36'713.8
2018-Apr-15 21:29N 18°53' E 071°28'713.8
2018-Apr-15 21:00N 18°53' E 071°21'1013.9
2018-Apr-15 20:19N 18°53' E 071°11'514.4
2018-Apr-15 20:00N 18°53' E 071°06'713.8
2018-Apr-15 19:30N 18°55' E 070°59'814.6
2018-Apr-15 18:57N 19°01' E 070°54'714.6
2018-Apr-15 18:30N 19°06' E 070°50'714.5
2018-Apr-15 18:00N 19°12' E 070°46'714.4
2018-Apr-15 17:30N 19°18' E 070°41'714.4
2018-Apr-15 17:00N 19°24' E 070°37'714.5
2018-Apr-15 16:30N 19°30' E 070°33'714.6
2018-Apr-15 16:00N 19°36' E 070°28'714.5
2018-Apr-15 15:30N 19°42' E 070°24'714.4
2018-Apr-15 15:00N 19°48' E 070°19'714.2
2018-Apr-15 14:30N 19°54' E 070°15'714.2
2018-Apr-15 14:00N 19°59' E 070°11'714.1
2018-Apr-15 13:30N 20°05' E 070°06'714.0
2018-Apr-15 13:00N 20°11' E 070°02'714.0
2018-Apr-15 12:29N 20°18' E 069°59'913.5
2018-Apr-15 11:50N 20°24' E 069°52'514.2
2018-Apr-15 11:30N 20°28' E 069°49'  

Dump ship's entire track history